DAAT

Details ICAO DAAT (TMR)
Name TAMANRASSET
Region Algeria
Timezone Africa/Algiers (UTC+1.0)
Plans Departing 253
Arriving 298
Stats Elevation 4,518 ft / 1,377 m (AMSL)
Location 22.810400° 5.444400°
Runways 2
Magnetic Variation 0.751° E
Sunrise 2019-09-17 05:26:39 UTC / 2019-09-17 06:26:39 Local
Sunset 2019-09-17 17:41:57 UTC / 2019-09-17 18:41:57 Local
Advertisement - Login to hide

Runways

ID Width Length Bearing (true/mag) Surface Threshold Overrun Markings Lighting
02 148 ft / 45 m 11,884 ft / 3,622 m 22.21° / 21.46° ASPHALT 0 ft / 0 m 0 ft / 0 m APP EDGE THRESHOLD
08 148 ft / 45 m 10,169 ft / 3,099 m 81.74° / 80.99° ASPHALT 0 ft / 0 m 0 ft / 0 m APP
20 148 ft / 45 m 11,884 ft / 3,622 m 202.22° / 201.47° ASPHALT 0 ft / 0 m 0 ft / 0 m APP EDGE THRESHOLD
26 148 ft / 45 m 10,169 ft / 3,099 m 261.75° / 261.00° ASPHALT 0 ft / 0 m 0 ft / 0 m APP

Map

Weather


0- 5 10 15 20 25 30 35+ Temperature / °C

Clouds and Precipitation
Forecast for 2019-09-17 12:00 UTC. Updated 5 hours ago

Ground ~20,000 ft ~40,000 ft Winds

METAR

DAAT 171400Z 32006KT 280V020 CAVOK 31/00 Q1020

TAF

TAF DAAT 171100Z 1712/1812 11010KT CAVOK BECMG 1713/1716 22012KT BECMG 1720/1823 06008KT

Frequencies

Tower 119.70 MHz
Tower 118.10 MHz
Warning: Do not use this data for real-world aviation or navigation. No guarantee of current accuracy is given.